createdAt,value
2023-01-11T00:01:12.434Z,7.25
2023-01-11T00:03:40.724Z,8.25
2023-01-11T00:06:09.229Z,8.75
2023-01-11T00:08:37.764Z,7.50
2023-01-11T00:11:06.568Z,7.00
2023-01-11T00:13:34.873Z,9.00
2023-01-11T00:16:10.408Z,7.00
2023-01-11T00:18:39.398Z,8.75
2023-01-11T00:21:08.906Z,7.00
2023-01-11T00:23:38.891Z,4.50
2023-01-11T00:26:10.868Z,5.00
2023-01-11T00:28:39.207Z,5.00
2023-01-11T00:31:07.638Z,3.00
2023-01-11T00:33:36.257Z,4.50
2023-01-11T00:36:04.573Z,3.75
2023-01-11T00:38:44.868Z,3.00
2023-01-11T00:41:33.135Z,2.75
2023-01-11T00:44:19.654Z,3.00
2023-01-11T00:47:06.353Z,4.50
2023-01-11T00:49:34.808Z,3.50
2023-01-11T00:52:06.491Z,4.25
2023-01-11T00:54:34.809Z,4.50
2023-01-11T00:57:03.742Z,3.50
2023-01-11T00:59:32.021Z,4.00
2023-01-11T01:02:00.354Z,3.75
2023-01-11T01:04:28.650Z,3.75
2023-01-11T01:06:57.038Z,3.75
2023-01-11T01:09:25.431Z,3.50
2023-01-11T01:11:54.029Z,3.00
2023-01-11T01:14:29.764Z,4.25
2023-01-11T01:17:08.159Z,4.75
2023-01-11T01:19:39.304Z,4.25
2023-01-11T01:22:08.249Z,3.00
2023-01-11T01:24:36.766Z,3.75
2023-01-11T01:27:05.183Z,3.00
2023-01-11T01:29:33.472Z,5.25
2023-01-11T01:32:01.808Z,4.25
2023-01-11T01:34:30.246Z,5.00
2023-01-11T01:36:58.581Z,3.00
2023-01-11T01:39:26.874Z,3.00
2023-01-11T01:41:55.409Z,4.00
2023-01-11T01:44:59.114Z,4.25
2023-01-11T01:47:39.161Z,4.50
2023-01-11T01:50:15.701Z,5.00
2023-01-11T01:52:47.572Z,5.25
2023-01-11T01:55:26.466Z,3.75
2023-01-11T01:57:56.437Z,3.25
2023-01-11T02:00:24.829Z,4.00
2023-01-11T02:02:53.978Z,4.50
2023-01-11T02:05:22.865Z,3.25
2023-01-11T02:07:52.478Z,3.00
2023-01-11T02:10:23.244Z,3.50
2023-01-11T02:13:01.327Z,3.00
2023-01-11T02:15:31.166Z,4.00
2023-01-11T02:17:59.489Z,4.00
2023-01-11T02:20:46.156Z,3.25
2023-01-11T02:23:35.729Z,4.00
2023-01-11T02:26:48.489Z,4.00
2023-01-11T02:29:37.926Z,3.50
2023-01-11T02:32:11.798Z,4.00
2023-01-11T02:34:47.224Z,3.25
2023-01-11T02:37:15.476Z,3.00
2023-01-11T02:40:08.107Z,4.00
2023-01-11T02:43:10.080Z,4.00
2023-01-11T02:45:44.038Z,5.00
2023-01-11T02:48:29.478Z,3.50
2023-01-11T02:51:07.465Z,5.00
2023-01-11T02:54:03.943Z,4.50
2023-01-11T02:56:38.829Z,5.00
2023-01-11T02:59:12.113Z,5.00
2023-01-11T03:01:52.539Z,2.75
2023-01-11T03:04:35.238Z,2.00
2023-01-11T03:07:33.772Z,3.00
2023-01-11T03:10:29.002Z,3.25
2023-01-11T03:13:04.492Z,5.00
2023-01-11T03:15:44.646Z,4.50
2023-01-11T03:18:31.257Z,3.00
2023-01-11T03:21:17.723Z,3.00
2023-01-11T03:23:55.932Z,4.00
2023-01-11T03:26:59.640Z,2.00
2023-01-11T03:29:27.922Z,4.25
2023-01-11T03:32:33.394Z,3.00
2023-01-11T03:35:32.435Z,3.00
2023-01-11T03:38:10.808Z,2.50
2023-01-11T03:40:44.184Z,3.00
2023-01-11T03:43:16.085Z,2.50
2023-01-11T03:45:44.381Z,3.25
2023-01-11T03:48:21.284Z,2.00
2023-01-11T03:50:51.469Z,2.00
2023-01-11T03:53:23.296Z,3.00
2023-01-11T03:55:57.787Z,3.00
2023-01-11T03:58:29.004Z,3.00
2023-01-11T04:00:59.096Z,3.25
2023-01-11T04:03:29.169Z,4.25
2023-01-11T04:06:02.420Z,2.25
2023-01-11T04:08:32.194Z,3.00
2023-01-11T04:11:00.965Z,3.00
2023-01-11T04:13:29.328Z,3.25
2023-01-11T04:15:57.748Z,3.00
2023-01-11T04:18:26.096Z,3.00
2023-01-11T04:20:54.407Z,3.00
2023-01-11T04:23:22.867Z,2.00
2023-01-11T04:25:51.178Z,2.00
2023-01-11T04:28:19.466Z,2.00
2023-01-11T04:30:47.775Z,3.25
2023-01-11T04:33:16.132Z,2.00
2023-01-11T04:35:45.614Z,2.00
2023-01-11T04:38:13.949Z,3.00
2023-01-11T04:40:42.384Z,2.00
2023-01-11T04:43:10.711Z,2.00
2023-01-11T04:45:39.136Z,1.75
2023-01-11T04:48:07.682Z,2.00
2023-01-11T04:50:35.985Z,2.00
2023-01-11T04:53:04.293Z,1.75
2023-01-11T04:55:32.608Z,2.75
2023-01-11T04:58:00.887Z,1.50
2023-01-11T05:00:29.232Z,2.00
2023-01-11T05:03:00.810Z,2.25
2023-01-11T05:05:29.132Z,2.00
2023-01-11T05:07:57.544Z,3.00
2023-01-11T05:10:25.816Z,2.00
2023-01-11T05:12:54.182Z,2.00
2023-01-11T05:15:22.477Z,3.00
2023-01-11T05:17:50.755Z,3.00
2023-01-11T05:20:19.127Z,3.00
2023-01-11T05:22:47.479Z,3.00
2023-01-11T05:25:15.813Z,3.00
2023-01-11T05:27:44.096Z,2.00
2023-01-11T05:30:12.986Z,2.25
2023-01-11T05:32:41.385Z,3.00
2023-01-11T05:35:12.117Z,2.00
2023-01-11T05:37:40.466Z,2.00
2023-01-11T05:40:09.490Z,2.00
2023-01-11T05:42:37.867Z,1.00
2023-01-11T05:45:25.096Z,2.00
2023-01-11T05:47:54.884Z,2.00
2023-01-11T05:50:23.207Z,2.00
2023-01-11T05:52:51.597Z,2.00
2023-01-11T05:55:20.609Z,2.00
2023-01-11T05:57:48.958Z,2.00
2023-01-11T06:00:17.724Z,1.75
2023-01-11T06:02:46.175Z,1.25
2023-01-11T06:05:14.773Z,3.00
2023-01-11T06:07:43.417Z,2.00
2023-01-11T06:10:12.271Z,2.00
2023-01-11T06:12:40.556Z,2.00
2023-01-11T06:15:09.409Z,2.00
2023-01-11T06:17:37.712Z,1.00
2023-01-11T06:20:06.547Z,1.75
2023-01-11T06:22:34.846Z,2.00
2023-01-11T06:25:03.219Z,1.00
2023-01-11T06:27:31.535Z,3.00
2023-01-11T06:29:59.837Z,1.00
2023-01-11T06:32:30.217Z,2.00
2023-01-11T06:34:58.501Z,2.00
2023-01-11T06:37:26.803Z,1.75
2023-01-11T06:39:55.108Z,1.50
2023-01-11T06:42:23.433Z,2.25
2023-01-11T06:44:51.716Z,2.00
2023-01-11T06:47:19.999Z,1.00
2023-01-11T06:49:48.293Z,1.50
2023-01-11T06:52:16.594Z,1.25
2023-01-11T06:54:44.883Z,2.00
2023-01-11T06:57:13.588Z,1.00
2023-01-11T06:59:42.823Z,1.00
2023-01-11T07:02:11.862Z,1.00
2023-01-11T07:04:40.145Z,1.00
2023-01-11T07:07:08.423Z,1.00
2023-01-11T07:09:36.707Z,1.50
2023-01-11T07:12:05.276Z,1.00
2023-01-11T07:14:33.582Z,2.00
2023-01-11T07:17:01.896Z,1.00
2023-01-11T07:19:30.190Z,1.00
2023-01-11T07:21:58.474Z,1.00
2023-01-11T07:24:26.941Z,2.00
2023-01-11T07:26:57.104Z,2.00
2023-01-11T07:29:25.367Z,3.00
2023-01-11T07:31:53.660Z,2.00
2023-01-11T07:34:21.967Z,2.00
2023-01-11T07:36:50.342Z,2.25
2023-01-11T07:39:18.674Z,2.00
2023-01-11T07:42:06.168Z,2.00
2023-01-11T07:44:34.467Z,2.00
2023-01-11T07:47:02.799Z,1.00
2023-01-11T07:49:31.201Z,2.00
2023-01-11T07:51:59.542Z,2.75
2023-01-11T07:54:27.968Z,1.00
2023-01-11T07:56:57.603Z,1.50
2023-01-11T07:59:25.953Z,1.00
2023-01-11T08:01:54.348Z,1.75
2023-01-11T08:04:22.653Z,1.50
2023-01-11T08:06:50.947Z,1.00
2023-01-11T08:09:19.259Z,1.00
2023-01-11T08:12:06.050Z,1.00
2023-01-11T08:14:40.422Z,1.00
2023-01-11T08:17:10.711Z,1.00
2023-01-11T08:19:39.525Z,1.00
2023-01-11T08:22:08.320Z,1.00
2023-01-11T08:24:36.808Z,1.00
2023-01-11T08:27:06.005Z,1.00
2023-01-11T08:29:34.384Z,1.25
2023-01-11T08:32:03.379Z,1.00
2023-01-11T08:34:33.623Z,2.00
2023-01-11T08:37:03.085Z,1.00
2023-01-11T08:39:32.105Z,1.00
2023-01-11T08:42:01.549Z,1.00
2023-01-11T08:44:34.148Z,1.00
2023-01-11T08:47:03.913Z,1.00
2023-01-11T08:49:32.523Z,1.25
2023-01-11T08:52:00.832Z,1.00
2023-01-11T08:54:29.363Z,1.00
2023-01-11T08:56:57.682Z,1.00
2023-01-11T08:59:26.151Z,1.00
2023-01-11T09:01:54.432Z,1.00
2023-01-11T09:04:25.419Z,1.00
2023-01-11T09:06:54.702Z,1.00
2023-01-11T09:09:23.139Z,1.00
2023-01-11T09:12:05.582Z,1.00
2023-01-11T09:14:34.365Z,2.00
2023-01-11T09:17:02.779Z,1.00
2023-01-11T09:19:31.147Z,1.25
2023-01-11T09:22:01.290Z,1.00
2023-01-11T09:24:31.113Z,1.00
2023-01-11T09:27:00.714Z,1.00
2023-01-11T09:29:29.069Z,1.00
2023-01-11T09:31:57.550Z,1.00
2023-01-11T09:34:28.155Z,1.00
2023-01-11T09:36:58.620Z,1.00
2023-01-11T09:39:28.640Z,2.00
2023-01-11T09:42:28.031Z,1.00
2023-01-11T09:45:19.676Z,1.00
2023-01-11T09:48:07.745Z,1.00
2023-01-11T09:50:42.153Z,1.00
2023-01-11T09:53:25.300Z,1.00
2023-01-11T09:55:57.703Z,1.00
2023-01-11T09:58:57.401Z,1.00
2023-01-11T10:01:47.799Z,1.00
2023-01-11T10:04:39.800Z,1.00
2023-01-11T10:07:30.119Z,1.00
2023-01-11T10:18:36.990Z,3.00
2023-01-11T10:19:48.979Z,2.00
2023-01-11T10:22:37.806Z,1.00
2023-01-11T10:25:24.572Z,2.25
2023-01-11T10:28:09.915Z,1.00
2023-01-11T10:30:49.615Z,1.00
2023-01-11T10:33:38.817Z,1.50
2023-01-11T10:36:32.234Z,1.00
2023-01-11T10:39:25.781Z,1.00
2023-01-11T10:42:11.763Z,1.75
2023-01-11T10:44:43.439Z,1.50
2023-01-11T10:47:19.322Z,1.00
2023-01-11T10:50:00.689Z,1.25
2023-01-11T10:52:36.255Z,2.00
2023-01-11T10:55:35.252Z,2.00
2023-01-11T10:58:24.146Z,2.00
2023-01-11T11:01:32.074Z,2.00
2023-01-11T11:04:12.233Z,2.00
2023-01-11T11:07:01.160Z,2.00
2023-01-11T11:10:01.271Z,2.00
2023-01-11T11:12:37.697Z,3.00
2023-01-11T11:15:13.046Z,2.00
2023-01-11T11:17:47.241Z,2.00
2023-01-11T11:20:30.634Z,1.25
2023-01-11T11:22:59.166Z,2.50
2023-01-11T11:25:42.659Z,1.25
2023-01-11T11:28:23.928Z,1.00
2023-01-11T11:30:56.484Z,2.00
2023-01-11T11:33:42.129Z,2.00
2023-01-11T11:36:13.194Z,1.00
2023-01-11T11:39:10.446Z,1.75
2023-01-11T11:42:05.064Z,1.00
2023-01-11T11:44:33.618Z,2.00
2023-01-11T11:47:16.606Z,2.00
2023-01-11T11:49:45.153Z,2.00
2023-01-11T11:52:19.098Z,1.00
2023-01-11T11:55:00.797Z,2.00
2023-01-11T11:57:35.678Z,1.25
2023-01-11T12:00:08.364Z,2.00
2023-01-11T12:02:50.923Z,2.00
2023-01-11T12:05:19.377Z,2.00
2023-01-11T12:07:55.110Z,2.25
2023-01-11T12:10:27.097Z,2.00
2023-01-11T12:13:28.387Z,2.75
2023-01-11T12:16:03.184Z,2.50
2023-01-11T12:18:42.120Z,2.00
2023-01-11T12:21:28.319Z,2.25
2023-01-11T12:24:10.693Z,3.00
2023-01-11T12:26:59.108Z,2.25
2023-01-11T12:29:49.286Z,2.50
2023-01-11T12:32:48.644Z,2.50
2023-01-11T12:35:19.984Z,3.00
2023-01-11T12:38:10.611Z,2.75
2023-01-11T12:41:02.680Z,1.75
2023-01-11T12:43:44.285Z,3.00
2023-01-11T12:46:47.746Z,3.00
2023-01-11T12:49:29.460Z,3.00
2023-01-11T12:52:19.023Z,3.00
2023-01-11T12:55:16.827Z,3.00
2023-01-11T12:58:09.175Z,3.00
2023-01-11T13:00:59.058Z,3.00
2023-01-11T13:03:35.150Z,3.00
2023-01-11T13:06:38.590Z,3.00
2023-01-11T13:09:18.715Z,5.25
2023-01-11T13:12:00.099Z,2.00
2023-01-11T13:14:28.333Z,3.00
2023-01-11T13:17:45.909Z,4.00
2023-01-11T13:20:59.857Z,3.00
2023-01-11T13:23:42.942Z,3.25
2023-01-11T13:26:17.256Z,3.00
2023-01-11T13:28:52.151Z,4.00
2023-01-11T13:31:21.423Z,4.00
2023-01-11T13:33:57.926Z,3.00
2023-01-11T13:36:34.443Z,3.00
2023-01-11T13:39:31.941Z,3.00
2023-01-11T13:42:06.160Z,3.75
2023-01-11T13:44:53.890Z,2.25
2023-01-11T13:47:38.735Z,4.00
2023-01-11T13:50:22.185Z,2.50
2023-01-11T13:52:56.397Z,3.50
2023-01-11T13:55:31.400Z,3.00
2023-01-11T13:58:29.842Z,3.00
2023-01-11T14:01:11.819Z,4.00
2023-01-11T14:03:49.584Z,2.00
2023-01-11T14:06:32.802Z,3.75
2023-01-11T14:09:39.223Z,2.00
2023-01-11T14:12:20.931Z,3.25
2023-01-11T14:15:10.335Z,2.00
2023-01-11T14:18:12.184Z,3.00
2023-01-11T14:20:52.451Z,3.00
2023-01-11T14:23:39.118Z,3.00
2023-01-11T14:26:16.628Z,3.00
2023-01-11T14:29:08.387Z,4.00
2023-01-11T14:32:03.922Z,3.00
2023-01-11T14:34:41.107Z,3.25
2023-01-11T14:37:36.979Z,2.50
2023-01-11T14:40:35.907Z,4.50
2023-01-11T14:43:40.678Z,4.00
2023-01-11T14:46:33.446Z,3.00
2023-01-11T14:49:22.306Z,3.00
2023-01-11T14:51:57.914Z,2.00
2023-01-11T14:54:40.031Z,4.50
2023-01-11T14:57:40.541Z,4.25
2023-01-11T15:00:21.021Z,4.75
2023-01-11T15:03:09.707Z,3.00
2023-01-11T15:06:01.643Z,3.00
2023-01-11T15:08:44.133Z,3.00
2023-01-11T15:11:24.654Z,4.00
2023-01-11T15:14:23.375Z,4.00
2023-01-11T15:17:13.951Z,3.50
2023-01-11T15:19:45.403Z,3.75
2023-01-11T15:22:32.167Z,3.25
2023-01-11T15:25:09.314Z,5.00
2023-01-11T15:27:39.564Z,3.00
2023-01-11T15:30:28.928Z,3.50
2023-01-11T15:33:18.931Z,3.75
2023-01-11T15:36:08.827Z,4.00
2023-01-11T15:38:50.931Z,4.00
2023-01-11T15:42:00.804Z,4.00
2023-01-11T15:44:44.725Z,5.00
2023-01-11T15:47:42.076Z,4.00
2023-01-11T15:50:46.919Z,4.25
2023-01-11T15:53:37.217Z,3.25
2023-01-11T15:56:36.591Z,5.25
2023-01-11T15:59:21.204Z,3.50
2023-01-11T16:02:08.024Z,3.00
2023-01-11T16:04:46.890Z,3.25
2023-01-11T16:07:30.083Z,4.00
2023-01-11T16:10:11.323Z,4.00
2023-01-11T16:13:04.575Z,4.50
2023-01-11T16:15:45.268Z,3.25
2023-01-11T16:18:23.862Z,5.00
2023-01-11T16:21:08.304Z,4.00
2023-01-11T16:23:37.258Z,5.00
2023-01-11T16:26:07.890Z,4.00
2023-01-11T16:28:36.575Z,4.00
2023-01-11T16:31:06.830Z,4.00
2023-01-11T16:33:35.986Z,3.50
2023-01-11T16:36:25.898Z,5.00
2023-01-11T16:39:10.508Z,5.00
2023-01-11T16:42:04.163Z,3.75
2023-01-11T16:44:45.540Z,5.00
2023-01-11T16:47:30.935Z,4.25
2023-01-11T16:50:26.129Z,3.75
2023-01-11T16:52:57.887Z,4.50
2023-01-11T16:55:31.837Z,4.00
2023-01-11T16:58:18.322Z,3.00
2023-01-11T17:01:01.029Z,4.00
2023-01-11T17:03:32.362Z,5.00
2023-01-11T17:06:09.744Z,5.50
2023-01-11T17:08:40.685Z,5.50
2023-01-11T17:11:21.217Z,5.00
2023-01-11T17:14:06.319Z,5.25
2023-01-11T17:16:50.381Z,6.00
2023-01-11T17:19:32.081Z,4.75
2023-01-11T17:22:06.082Z,4.00
2023-01-11T17:24:43.424Z,3.25
2023-01-11T17:27:22.219Z,4.00
2023-01-11T17:29:53.307Z,3.00
2023-01-11T17:32:30.565Z,4.25
2023-01-11T17:35:03.318Z,6.75
2023-01-11T17:37:32.250Z,3.00
2023-01-11T17:40:01.211Z,7.00
2023-01-11T17:42:47.884Z,4.00
2023-01-11T17:45:27.155Z,5.50
2023-01-11T17:47:56.322Z,4.75
2023-01-11T17:50:36.159Z,5.00
2023-01-11T17:53:26.768Z,4.25
2023-01-11T17:55:59.316Z,5.00
2023-01-11T17:58:38.611Z,4.00
2023-01-11T18:01:09.724Z,4.75
2023-01-11T18:03:54.943Z,3.50
2023-01-11T18:06:31.985Z,5.00
2023-01-11T18:09:02.391Z,4.50
2023-01-11T18:11:38.102Z,5.00
2023-01-11T18:14:17.046Z,5.50
2023-01-11T18:17:05.779Z,6.75
2023-01-11T18:19:42.684Z,6.75
2023-01-11T18:22:42.863Z,5.75
2023-01-11T18:25:23.376Z,7.50
2023-01-11T18:27:52.404Z,5.25
2023-01-11T18:30:33.185Z,5.00
2023-01-11T18:33:04.801Z,5.25
2023-01-11T18:35:46.511Z,5.75
2023-01-11T18:38:23.383Z,5.00
2023-01-11T18:40:54.547Z,7.50
2023-01-11T18:43:32.692Z,4.75
2023-01-11T18:46:01.079Z,7.00
2023-01-11T18:48:29.398Z,6.00
2023-01-11T18:50:58.676Z,4.25
2023-01-11T18:53:29.041Z,5.00
2023-01-11T18:55:57.369Z,4.00
2023-01-11T18:58:25.746Z,4.00
2023-01-11T19:00:54.188Z,4.25
2023-01-11T19:03:22.733Z,3.00
2023-01-11T19:05:51.106Z,4.00
2023-01-11T19:08:19.845Z,4.25
2023-01-11T19:10:50.015Z,3.75
2023-01-11T19:13:20.287Z,4.00
2023-01-11T19:15:49.135Z,3.00
2023-01-11T19:18:17.603Z,3.25
2023-01-11T19:20:45.988Z,3.75
2023-01-11T19:23:14.522Z,3.50
2023-01-11T19:25:42.883Z,3.25
2023-01-11T19:28:11.278Z,4.00
2023-01-11T19:30:40.378Z,2.25
2023-01-11T19:33:08.785Z,4.00
2023-01-11T19:35:42.037Z,4.00
2023-01-11T19:38:10.972Z,2.25
2023-01-11T19:40:39.341Z,3.00
2023-01-11T19:43:07.663Z,3.00
2023-01-11T19:45:36.012Z,4.00
2023-01-11T19:48:05.574Z,3.00
2023-01-11T19:50:34.361Z,3.25
2023-01-11T19:53:02.679Z,3.75
2023-01-11T19:55:31.109Z,3.00
2023-01-11T19:57:59.424Z,2.50
2023-01-11T20:00:27.805Z,4.00
2023-01-11T20:02:56.217Z,3.50
2023-01-11T20:05:24.553Z,4.00
2023-01-11T20:07:54.831Z,3.50
2023-01-11T20:10:23.133Z,3.25
2023-01-11T20:12:51.447Z,2.75
2023-01-11T20:15:19.758Z,3.00
2023-01-11T20:17:48.074Z,4.25
2023-01-11T20:20:16.545Z,3.75
2023-01-11T20:22:45.731Z,3.25
2023-01-11T20:25:14.424Z,4.00
2023-01-11T20:27:42.786Z,4.00
2023-01-11T20:30:11.873Z,3.50
2023-01-11T20:32:42.150Z,4.75
2023-01-11T20:35:11.602Z,4.50
2023-01-11T20:37:40.070Z,4.50
2023-01-11T20:40:09.042Z,4.75
2023-01-11T20:42:37.399Z,4.00
2023-01-11T20:45:06.133Z,4.00
2023-01-11T20:47:34.439Z,4.25
2023-01-11T20:50:02.804Z,4.00
2023-01-11T20:52:31.115Z,4.25
2023-01-11T20:54:59.450Z,4.75
2023-01-11T20:57:30.251Z,3.50
2023-01-11T20:59:58.757Z,3.75
2023-01-11T21:02:27.232Z,6.00
2023-01-11T21:04:55.644Z,4.00
2023-01-11T21:07:23.977Z,4.00
2023-01-11T21:09:52.294Z,4.75
2023-01-11T21:12:21.305Z,4.00
2023-01-11T21:14:49.650Z,5.50
2023-01-11T21:17:18.707Z,4.00
2023-01-11T21:19:47.226Z,5.25
2023-01-11T21:22:15.590Z,4.50
2023-01-11T21:24:45.233Z,5.00
2023-01-11T21:27:13.659Z,4.50
2023-01-11T21:29:42.045Z,5.75
2023-01-11T21:32:10.816Z,4.00
2023-01-11T21:34:39.112Z,3.00
2023-01-11T21:37:07.395Z,3.25
2023-01-11T21:39:35.718Z,4.00
2023-01-11T21:42:04.595Z,4.25
2023-01-11T21:44:35.188Z,4.50
2023-01-11T21:47:06.600Z,4.00
2023-01-11T21:49:35.173Z,3.50
2023-01-11T21:52:03.590Z,3.50
2023-01-11T21:54:32.006Z,4.25
2023-01-11T21:57:00.368Z,3.00
2023-01-11T21:59:29.028Z,3.00
2023-01-11T22:01:57.372Z,4.00
2023-01-11T22:04:25.777Z,4.50
2023-01-11T22:06:56.562Z,3.50
2023-01-11T22:09:28.764Z,3.25
2023-01-11T22:11:57.144Z,3.75
2023-01-11T22:14:25.848Z,3.00
2023-01-11T22:16:54.778Z,3.25
2023-01-11T22:19:23.455Z,3.75
2023-01-11T22:21:51.776Z,5.75
2023-01-11T22:24:20.165Z,3.75
2023-01-11T22:26:48.508Z,4.75
2023-01-11T22:29:16.961Z,5.75
2023-01-11T22:31:55.634Z,5.00
2023-01-11T22:34:25.367Z,6.00
2023-01-11T22:36:55.156Z,5.00
2023-01-11T22:39:24.984Z,6.75
2023-01-11T22:41:53.600Z,7.25
2023-01-11T22:44:21.938Z,6.00
2023-01-11T22:46:50.364Z,6.00
2023-01-11T22:49:20.549Z,7.00
2023-01-11T22:51:49.171Z,6.00
2023-01-11T22:54:17.517Z,6.75
2023-01-11T22:56:45.831Z,6.50
2023-01-11T22:59:14.215Z,6.75
2023-01-11T23:01:43.574Z,6.00
2023-01-11T23:04:14.888Z,7.00
2023-01-11T23:06:44.493Z,5.75
2023-01-11T23:09:17.217Z,7.50
2023-01-11T23:12:04.457Z,7.25
2023-01-11T23:14:34.047Z,7.75
2023-01-11T23:17:11.557Z,5.50
2023-01-11T23:19:41.901Z,8.25
2023-01-11T23:22:11.334Z,8.25
2023-01-11T23:24:39.966Z,7.75
2023-01-11T23:27:08.340Z,7.25
2023-01-11T23:29:36.876Z,8.00
2023-01-11T23:32:05.536Z,8.75
2023-01-11T23:34:33.911Z,8.75
2023-01-11T23:37:02.209Z,5.75
2023-01-11T23:39:31.582Z,8.00
2023-01-11T23:42:18.211Z,7.25
2023-01-11T23:44:47.911Z,9.00
2023-01-11T23:47:22.131Z,8.75
2023-01-11T23:49:51.844Z,7.50
2023-01-11T23:52:22.100Z,7.25
2023-01-11T23:54:50.433Z,6.50
2023-01-11T23:57:20.667Z,6.25
2023-01-11T23:59:49.047Z,8.75
